LOS ANGELES INTL

KLAX (LAX)
Los Angeles, California
Towered

Vatsim Metar:
KLAX 260753Z 24006KT 6SM BR SCT007 BKN009 17/16 A2995 RMK AO2 SLP140 VIS W 2 T01720156 402220161

No ATC Online

Traffic

Inbound:
Ident
Type
Name
ETA
Phase
DLR83
B763
Aaron D'Souza CYYZ
Boarding
AUA81
B772
Michael Mauer LOWW
12:12 Z
Cruse
BAW409
B744
Josh RPLL
12:23 Z
Cruse
UAE349
B77W
Maksim Tretyakov USSS
12:18 Z
Cruse
AAR202
A388
Fabiano Souza SBGL
13:43 Z
Cruse
KAL11
A388
Joao Cunha SBGL
14:17 Z
Cruse
QFA17
A388
Ian Cumming EGKK
17:23 Z
Descent

Outbound:
Ident
Type
Name
Destination
Phase
DAL1875
B752
1369082 KCMA
MMSD
Climb